Time;durP1;ratioP1;P1;durP2;ratioP2;P2;SDS_P1;SDS_P2;PMS_P1;PMS_P2;Temp;Humidity;BMP_temperature;BMP_pressure;BME280_temperature;BME280_humidity;BME280_pressure;Samples;Min_cycle;Max_cycle;Signal;HPM_P1;HPM_P2
2024/01/10 00:00:15;;;;;;;182.10;61.10;;;;;;;;;;10260550;23;20100;-84
2024/01/10 00:04:40;;;;;;;167.80;56.20;;;;;;;;;;10286903;23;20067;-85
2024/01/10 00:08:44;;;;;;;149.07;49.60;;;;;;;;;;10260621;23;20016;-84
2024/01/10 00:12:50;;;;;;;142.60;48.53;;;;;;;;;;10259736;23;20051;-86
2024/01/10 00:16:52;;;;;;;187.90;58.60;;;;;;;;;;10260241;23;20029;-87
2024/01/10 00:20:58;;;;;;;156.55;52.42;;;;;;;;;;10260547;23;20025;-84
2024/01/10 00:25:01;;;;;;;308.27;86.50;;;;;;;;;;10260363;23;20094;-83
2024/01/10 00:29:04;;;;;;;196.35;61.63;;;;;;;;;;10260456;23;20021;-84
2024/01/10 00:33:07;;;;;;;157.68;51.10;;;;;;;;;;10286557;23;20024;-85
2024/01/10 00:37:12;;;;;;;170.18;53.72;;;;;;;;;;10261523;23;20125;-84
2024/01/10 00:41:14;;;;;;;169.48;55.05;;;;;;;;;;10287008;23;20020;-85
2024/01/10 00:45:17;;;;;;;306.05;84.03;;;;;;;;;;10286435;23;20021;-84
2024/01/10 00:49:20;;;;;;;301.73;85.57;;;;;;;;;;10286643;23;20565;-85
2024/01/10 00:53:26;;;;;;;353.17;96.35;;;;;;;;;;10286505;23;20445;-85
2024/01/10 00:57:31;;;;;;;358.02;97.43;;;;;;;;;;10260248;23;20020;-84
2024/01/10 01:01:35;;;;;;;201.02;60.58;;;;;;;;;;10259877;23;20024;-85
2024/01/10 01:11:29;;;;;;;280.08;79.80;;;;;;;;;;10286589;23;20023;-85
2024/01/10 01:15:33;;;;;;;172.70;54.45;;;;;;;;;;10305986;23;20448;-84
2024/01/10 01:19:38;;;;;;;168.95;52.65;;;;;;;;;;10289570;23;20393;-84
2024/01/10 01:23:43;;;;;;;172.02;50.80;;;;;;;;;;10262546;23;20428;-86
2024/01/10 01:27:50;;;;;;;140.13;48.90;;;;;;;;;;10263284;23;20400;-85
2024/01/10 01:31:53;;;;;;;155.73;48.25;;;;;;;;;;10263703;23;20020;-86
2024/01/10 01:35:58;;;;;;;152.30;51.95;;;;;;;;;;10263100;23;20032;-85
2024/01/10 01:40:02;;;;;;;164.45;49.63;;;;;;;;;;10289769;23;20017;-85
2024/01/10 01:44:09;;;;;;;222.43;69.60;;;;;;;;;;10262753;23;20017;-85
2024/01/10 01:48:14;;;;;;;154.18;56.30;;;;;;;;;;10262487;23;20036;-85
2024/01/10 01:52:19;;;;;;;138.73;45.35;;;;;;;;;;10262197;23;20487;-84
2024/01/10 02:10:02;;;;;;;214.65;65.85;;;;;;;;;;10231384;23;20048;-85
2024/01/10 02:14:06;;;;;;;176.52;58.55;;;;;;;;;;10235432;23;20025;-85
2024/01/10 02:18:14;;;;;;;151.82;52.17;;;;;;;;;;10234746;23;20025;-86
2024/01/10 02:22:17;;;;;;;155.77;54.28;;;;;;;;;;10222103;23;20021;-86
2024/01/10 02:26:21;;;;;;;148.73;49.53;;;;;;;;;;10258965;23;20460;-86
2024/01/10 02:30:24;;;;;;;301.13;90.82;;;;;;;;;;10338537;23;20384;-85
2024/01/10 02:34:28;;;;;;;158.05;51.55;;;;;;;;;;10338843;23;20452;-86
2024/01/10 02:38:30;;;;;;;157.20;53.13;;;;;;;;;;10338371;23;20027;-86
2024/01/10 02:42:36;;;;;;;370.63;116.30;;;;;;;;;;10338462;23;20096;-85
2024/01/10 02:46:39;;;;;;;205.95;68.82;;;;;;;;;;10354785;22;20024;-86
2024/01/10 02:50:45;;;;;;;133.75;47.53;;;;;;;;;;10342158;22;20032;-86
2024/01/10 02:54:48;;;;;;;138.60;45.75;;;;;;;;;;10338081;23;20051;-85
2024/01/10 02:58:55;;;;;;;149.27;50.25;;;;;;;;;;10338361;23;20520;-86
2024/01/10 03:02:58;;;;;;;143.95;43.38;;;;;;;;;;10354822;23;20027;-84
2024/01/10 03:07:02;;;;;;;129.93;42.22;;;;;;;;;;10336362;23;20039;-86
2024/01/10 03:11:05;;;;;;;135.55;41.22;;;;;;;;;;10336688;23;20036;-83
2024/01/10 03:15:13;;;;;;;123.22;42.08;;;;;;;;;;10336491;23;20337;-84
2024/01/10 03:19:16;;;;;;;138.32;45.78;;;;;;;;;;10336612;23;20320;-84
2024/01/10 03:23:19;;;;;;;214.57;62.38;;;;;;;;;;10336313;23;20169;-85
2024/01/10 03:27:23;;;;;;;181.10;56.70;;;;;;;;;;10335667;23;20119;-84
2024/01/10 03:31:30;;;;;;;196.32;65.32;;;;;;;;;;10336137;23;20023;-85
2024/01/10 03:35:32;;;;;;;165.80;51.95;;;;;;;;;;10354118;23;20495;-85
2024/01/10 03:39:35;;;;;;;130.45;46.17;;;;;;;;;;10337106;23;20439;-82
2024/01/10 03:47:51;;;;;;;146.98;48.28;;;;;;;;;;10268928;23;20106;-85
2024/01/10 03:51:54;;;;;;;180.98;58.22;;;;;;;;;;10354218;23;20028;-86
2024/01/10 04:00:11;;;;;;;143.40;50.00;;;;;;;;;;10328067;23;20052;-85
2024/01/10 04:05:10;;;;;;;142.05;46.35;;;;;;;;;;10230891;23;20091;-86
2024/01/10 04:09:15;;;;;;;133.23;44.40;;;;;;;;;;10338066;23;20026;-85
2024/01/10 04:17:39;;;;;;;120.88;40.78;;;;;;;;;;10323137;23;20611;-85
2024/01/10 04:31:15;;;;;;;129.10;41.63;;;;;;;;;;10231697;23;20028;-85
2024/01/10 04:35:18;;;;;;;143.65;41.63;;;;;;;;;;10232335;23;20465;-85
2024/01/10 04:39:21;;;;;;;169.40;51.22;;;;;;;;;;10232013;23;20044;-86
2024/01/10 04:43:25;;;;;;;136.50;45.40;;;;;;;;;;10232464;23;20024;-84
2024/01/10 04:47:30;;;;;;;135.63;42.15;;;;;;;;;;10209003;23;20297;-84
2024/01/10 04:51:33;;;;;;;151.43;44.00;;;;;;;;;;10235311;23;20100;-83
2024/01/10 04:55:35;;;;;;;133.15;45.97;;;;;;;;;;10308245;23;20028;-84
2024/01/10 04:59:38;;;;;;;130.68;40.53;;;;;;;;;;10340666;23;20016;-84
2024/01/10 05:03:43;;;;;;;118.22;40.05;;;;;;;;;;10340352;23;20024;-86
2024/01/10 05:07:46;;;;;;;134.63;42.65;;;;;;;;;;10366818;22;20030;-83
2024/01/10 05:11:51;;;;;;;126.57;40.97;;;;;;;;;;10363700;22;20023;-82
2024/01/10 05:15:54;;;;;;;125.28;42.42;;;;;;;;;;10363532;22;20020;-84
2024/01/10 05:19:59;;;;;;;128.18;41.63;;;;;;;;;;10390370;22;20376;-82
2024/01/10 05:24:03;;;;;;;157.57;52.33;;;;;;;;;;10363569;22;20689;-84
2024/01/10 05:28:07;;;;;;;140.02;48.85;;;;;;;;;;10390328;22;20085;-85
2024/01/10 05:32:10;;;;;;;222.73;70.95;;;;;;;;;;10402985;22;20035;-84
2024/01/10 05:36:14;;;;;;;146.50;50.45;;;;;;;;;;10385887;22;20019;-84
2024/01/10 05:40:18;;;;;;;162.35;51.03;;;;;;;;;;10393280;22;20047;-86
2024/01/10 05:44:24;;;;;;;419.25;115.55;;;;;;;;;;10390494;22;20015;-86
2024/01/10 05:48:32;;;;;;;196.20;65.60;;;;;;;;;;10408624;22;20024;-86
2024/01/10 05:52:44;;;;;;;175.10;56.72;;;;;;;;;;10410031;22;20015;-84
2024/01/10 05:56:49;;;;;;;159.85;51.58;;;;;;;;;;10409386;22;20015;-86
2024/01/10 06:01:00;;;;;;;247.23;79.20;;;;;;;;;;10391036;22;20452;-84
2024/01/10 06:05:06;;;;;;;304.27;88.53;;;;;;;;;;10408589;22;20340;-82
2024/01/10 06:32:08;;;;;;;311.50;92.25;;;;;;;;;;10354922;23;20020;-85
2024/01/10 06:36:11;;;;;;;201.15;60.75;;;;;;;;;;10354974;23;20472;-85
2024/01/10 06:40:14;;;;;;;125.03;42.88;;;;;;;;;;10338400;23;20050;-84
2024/01/10 06:44:18;;;;;;;167.07;49.65;;;;;;;;;;10338828;23;20409;-86
2024/01/10 07:06:46;;;;;;;189.52;54.63;;;;;;;;;;10323926;23;20024;-85
2024/01/10 07:10:49;;;;;;;163.45;52.45;;;;;;;;;;10337451;23;20016;-84
2024/01/10 07:23:23;;;;;;;105.57;35.83;;;;;;;;;;10287677;23;20032;-84
2024/01/10 07:27:26;;;;;;;127.43;41.95;;;;;;;;;;10287423;23;20445;-83
2024/01/10 07:31:29;;;;;;;116.80;40.80;;;;;;;;;;10287096;23;20091;-85
2024/01/10 07:35:32;;;;;;;118.90;40.47;;;;;;;;;;10261104;23;20017;-84
2024/01/10 07:53:48;;;;;;;103.93;34.72;;;;;;;;;;10337420;23;20042;-86
2024/01/10 07:57:52;;;;;;;131.25;46.30;;;;;;;;;;10337567;23;20445;-87
2024/01/10 08:02:01;;;;;;;132.38;46.15;;;;;;;;;;10356566;22;20000;-86
2024/01/10 08:06:05;;;;;;;54.42;27.60;;;;;;;;;;10370117;22;20298;-88
2024/01/10 08:10:11;;;;;;;51.10;24.00;;;;;;;;;;10337531;22;20070;-87
2024/01/10 08:14:16;;;;;;;55.10;26.83;;;;;;;;;;10337509;22;20038;-88
2024/01/10 08:18:20;;;;;;;38.38;18.63;;;;;;;;;;10344600;23;20470;-84
2024/01/10 08:22:23;;;;;;;59.83;30.80;;;;;;;;;;10355598;22;20020;-87
2024/01/10 08:26:28;;;;;;;68.00;31.55;;;;;;;;;;10343215;23;20023;-86
2024/01/10 08:30:36;;;;;;;68.72;25.17;;;;;;;;;;10337166;23;20040;-85
2024/01/10 08:34:42;;;;;;;50.05;24.27;;;;;;;;;;10334962;23;20503;-87
2024/01/10 08:38:48;;;;;;;64.70;26.50;;;;;;;;;;10335752;23;20043;-82
2024/01/10 08:42:51;;;;;;;99.55;28.45;;;;;;;;;;10336078;23;20526;-86
2024/01/10 08:46:56;;;;;;;70.00;26.48;;;;;;;;;;10335679;23;20024;-87
2024/01/10 08:50:59;;;;;;;60.10;19.38;;;;;;;;;;10336853;23;20020;-87
2024/01/10 08:55:02;;;;;;;52.85;21.13;;;;;;;;;;10337055;23;20027;-86
2024/01/10 08:59:05;;;;;;;47.55;20.17;;;;;;;;;;10336875;23;20043;-86
2024/01/10 09:03:09;;;;;;;44.47;16.98;;;;;;;;;;10337029;23;20028;-86
2024/01/10 09:07:12;;;;;;;32.13;17.05;;;;;;;;;;10336527;23;20031;-87
2024/01/10 09:11:17;;;;;;;37.65;17.20;;;;;;;;;;10336820;23;20111;-87
2024/01/10 09:15:20;;;;;;;35.83;17.33;;;;;;;;;;10337333;23;20023;-85
2024/01/10 09:19:25;;;;;;;54.20;19.60;;;;;;;;;;10373240;22;20024;-85
2024/01/10 09:23:28;;;;;;;95.55;35.97;;;;;;;;;;10353050;22;20095;-88
2024/01/10 09:33:00;;;;;;;54.25;22.58;;;;;;;;;;10325125;23;20051;-87
2024/01/10 09:37:05;;;;;;;61.17;28.15;;;;;;;;;;10305033;23;20071;-88
2024/01/10 09:41:08;;;;;;;66.80;28.98;;;;;;;;;;10340343;23;20050;-85
2024/01/10 09:45:13;;;;;;;61.58;25.10;;;;;;;;;;10313002;23;20090;-88
2024/01/10 09:49:16;;;;;;;65.35;27.10;;;;;;;;;;10313032;23;20143;-89
2024/01/10 09:53:24;;;;;;;57.40;25.30;;;;;;;;;;10312933;23;20043;-87
2024/01/10 09:57:27;;;;;;;43.78;20.23;;;;;;;;;;10356367;23;20608;-88
2024/01/10 10:01:32;;;;;;;39.95;16.83;;;;;;;;;;10313727;23;20020;-89
2024/01/10 10:05:37;;;;;;;41.17;16.42;;;;;;;;;;10340011;23;20016;-88
2024/01/10 10:09:44;;;;;;;35.15;16.90;;;;;;;;;;10312552;23;20027;-86
2024/01/10 10:13:47;;;;;;;41.35;18.30;;;;;;;;;;10339568;23;20047;-88
2024/01/10 10:17:53;;;;;;;43.92;17.73;;;;;;;;;;10311759;23;20016;-88
2024/01/10 10:22:09;;;;;;;43.80;20.67;;;;;;;;;;10312143;23;20345;-87
2024/01/10 10:26:21;;;;;;;41.03;17.63;;;;;;;;;;10313621;23;20479;-88
2024/01/10 10:30:24;;;;;;;45.42;19.92;;;;;;;;;;10311762;23;20024;-88
2024/01/10 10:34:33;;;;;;;42.08;18.60;;;;;;;;;;10322769;23;20020;-83
2024/01/10 10:38:36;;;;;;;53.70;24.38;;;;;;;;;;10351107;23;20024;-83
2024/01/10 10:42:45;;;;;;;81.18;41.08;;;;;;;;;;10342547;23;20452;-85
2024/01/10 10:46:53;;;;;;;127.10;57.88;;;;;;;;;;10357852;23;20024;-88
2024/01/10 10:51:06;;;;;;;71.22;30.35;;;;;;;;;;10363004;23;20016;-84
2024/01/10 10:55:09;;;;;;;134.82;36.83;;;;;;;;;;10348769;23;20020;-87
2024/01/10 10:59:16;;;;;;;141.93;38.85;;;;;;;;;;10346935;23;20468;-86
2024/01/10 11:03:21;;;;;;;35.72;14.38;;;;;;;;;;10355148;23;20074;-88
2024/01/10 11:07:24;;;;;;;26.17;10.57;;;;;;;;;;10336986;23;20070;-89
2024/01/10 11:11:39;;;;;;;36.65;14.43;;;;;;;;;;10337482;23;20027;-85
2024/01/10 11:16:12;;;;;;;34.78;12.95;;;;;;;;;;10264994;23;20479;-86
2024/01/10 11:20:22;;;;;;;26.55;11.10;;;;;;;;;;10288135;23;20051;-89
2024/01/10 11:24:26;;;;;;;29.10;11.63;;;;;;;;;;10304461;23;20437;-86
2024/01/10 11:28:34;;;;;;;33.45;11.90;;;;;;;;;;10260941;23;20016;-88
2024/01/10 11:32:39;;;;;;;45.30;15.63;;;;;;;;;;10261596;23;20058;-85
2024/01/10 11:37:12;;;;;;;87.82;25.70;;;;;;;;;;10261354;23;20091;-89
2024/01/10 11:41:22;;;;;;;111.35;33.70;;;;;;;;;;10261443;23;20063;-86
2024/01/10 11:45:38;;;;;;;35.53;13.18;;;;;;;;;;10262595;23;20028;-88
2024/01/10 11:49:55;;;;;;;39.40;13.75;;;;;;;;;;10272264;23;20017;-89
2024/01/10 11:53:58;;;;;;;37.25;13.68;;;;;;;;;;10265084;23;20067;-89
2024/01/10 11:58:09;;;;;;;40.00;14.45;;;;;;;;;;10262837;23;20021;-89
2024/01/10 12:13:04;;;;;;;38.72;14.13;;;;;;;;;;10311654;23;20031;-82
2024/01/10 12:17:08;;;;;;;44.35;15.63;;;;;;;;;;10310624;23;20048;-82
2024/01/10 12:21:12;;;;;;;41.63;16.38;;;;;;;;;;10287423;23;20017;-90
2024/01/10 12:25:15;;;;;;;49.10;16.40;;;;;;;;;;10287181;23;20104;-85
2024/01/10 12:29:25;;;;;;;49.70;19.63;;;;;;;;;;10287473;23;20105;-91
2024/01/10 12:33:28;;;;;;;37.47;15.15;;;;;;;;;;10286369;23;20041;-88
2024/01/10 12:37:31;;;;;;;35.53;15.60;;;;;;;;;;10291343;23;20096;-88
2024/01/10 12:41:35;;;;;;;33.53;13.48;;;;;;;;;;10286581;23;20060;-84
2024/01/10 12:45:43;;;;;;;41.40;13.73;;;;;;;;;;10286983;23;20021;-89
2024/01/10 12:49:46;;;;;;;40.25;14.40;;;;;;;;;;10287426;23;20021;-84
2024/01/10 12:53:49;;;;;;;29.60;12.00;;;;;;;;;;10287975;23;20031;-86
2024/01/10 12:57:53;;;;;;;30.17;13.45;;;;;;;;;;10285418;23;20075;-90
2024/01/10 13:17:08;;;;;;;48.10;18.67;;;;;;;;;;10339966;23;20042;-82
2024/01/10 13:21:11;;;;;;;43.47;16.48;;;;;;;;;;10357348;23;20062;-83
2024/01/10 13:25:15;;;;;;;82.95;23.98;;;;;;;;;;10340264;23;20030;-90
2024/01/10 13:29:18;;;;;;;75.60;21.75;;;;;;;;;;10340469;23;20342;-89
2024/01/10 13:33:25;;;;;;;49.95;18.77;;;;;;;;;;10340611;23;20074;-89
2024/01/10 13:37:32;;;;;;;61.75;24.17;;;;;;;;;;10313706;23;20019;-87
2024/01/10 13:41:39;;;;;;;61.92;25.17;;;;;;;;;;10313588;23;20020;-88
2024/01/10 13:45:45;;;;;;;66.75;19.50;;;;;;;;;;10313471;23;20047;-88
2024/01/10 13:49:53;;;;;;;47.92;14.90;;;;;;;;;;10313332;23;20046;-89
2024/01/10 13:53:56;;;;;;;37.88;14.75;;;;;;;;;;10312661;23;20412;-84
2024/01/10 13:57:58;;;;;;;49.63;15.73;;;;;;;;;;10339456;23;20020;-89
2024/01/10 14:02:02;;;;;;;69.88;22.80;;;;;;;;;;10312977;23;20031;-89
2024/01/10 14:06:08;;;;;;;46.35;16.20;;;;;;;;;;10312063;23;20112;-84
2024/01/10 14:10:12;;;;;;;116.13;32.75;;;;;;;;;;10356473;23;20042;-88
2024/01/10 14:14:18;;;;;;;147.30;41.33;;;;;;;;;;10339927;23;20038;-85
2024/01/10 14:18:21;;;;;;;86.10;30.08;;;;;;;;;;10312907;23;20016;-89
2024/01/10 14:22:26;;;;;;;68.50;26.20;;;;;;;;;;10312283;23;20039;-88
2024/01/10 14:26:29;;;;;;;39.17;15.48;;;;;;;;;;10338604;23;20063;-88
2024/01/10 14:30:32;;;;;;;50.33;16.60;;;;;;;;;;10338884;23;20098;-88
2024/01/10 14:34:35;;;;;;;112.32;30.02;;;;;;;;;;10339179;23;20031;-87
2024/01/10 14:38:40;;;;;;;66.93;20.52;;;;;;;;;;10338914;23;20436;-87
2024/01/10 14:42:45;;;;;;;40.30;17.85;;;;;;;;;;10312269;23;20020;-88
2024/01/10 14:46:48;;;;;;;45.70;17.40;;;;;;;;;;10312175;23;20020;-88
2024/01/10 14:50:52;;;;;;;34.45;15.48;;;;;;;;;;10311923;23;20027;-87
2024/01/10 14:54:57;;;;;;;50.50;16.63;;;;;;;;;;10311347;23;20491;-88
2024/01/10 14:59:00;;;;;;;112.88;28.90;;;;;;;;;;10311900;23;20051;-87
2024/01/10 15:03:04;;;;;;;83.20;24.60;;;;;;;;;;10338167;23;20050;-87
2024/01/10 15:07:08;;;;;;;70.45;21.00;;;;;;;;;;10339171;23;20024;-89
2024/01/10 15:11:13;;;;;;;43.22;17.73;;;;;;;;;;10311638;23;20016;-87
2024/01/10 15:15:16;;;;;;;35.22;13.60;;;;;;;;;;10310450;23;20020;-88
2024/01/10 15:19:19;;;;;;;37.65;12.43;;;;;;;;;;10311753;23;20070;-88
2024/01/10 15:23:24;;;;;;;35.55;14.02;;;;;;;;;;10312166;23;20040;-87
2024/01/10 15:27:32;;;;;;;39.30;14.93;;;;;;;;;;10311862;23;20020;-83
2024/01/10 15:31:36;;;;;;;33.25;13.18;;;;;;;;;;10311195;23;20024;-85
2024/01/10 15:35:39;;;;;;;33.72;14.18;;;;;;;;;;10311270;23;20358;-83
2024/01/10 15:39:43;;;;;;;31.83;13.35;;;;;;;;;;10311347;23;20421;-86
2024/01/10 15:43:50;;;;;;;36.60;12.93;;;;;;;;;;10311199;23;20028;-86
2024/01/10 15:47:53;;;;;;;28.67;13.65;;;;;;;;;;10310120;23;20340;-87
2024/01/10 15:51:56;;;;;;;33.42;13.80;;;;;;;;;;10306325;23;20464;-87
2024/01/10 15:56:00;;;;;;;30.15;13.38;;;;;;;;;;10337270;23;20456;-86
2024/01/10 16:00:06;;;;;;;40.83;14.68;;;;;;;;;;10337293;23;20048;-84
2024/01/10 16:04:09;;;;;;;40.00;16.38;;;;;;;;;;10329800;23;20024;-86
2024/01/10 16:08:17;;;;;;;41.72;16.20;;;;;;;;;;10338934;23;20039;-88
2024/01/10 16:12:21;;;;;;;52.80;18.45;;;;;;;;;;10354751;23;20016;-82
2024/01/10 16:16:28;;;;;;;33.85;13.63;;;;;;;;;;10311187;23;20119;-82
2024/01/10 16:59:52;;;;;;;50.05;17.13;;;;;;;;;;10340557;23;20439;-86
2024/01/10 17:03:57;;;;;;;43.15;15.05;;;;;;;;;;10334384;23;20401;-86
2024/01/10 17:08:00;;;;;;;34.38;13.80;;;;;;;;;;10312858;23;20020;-87
2024/01/10 17:12:03;;;;;;;100.53;28.77;;;;;;;;;;10340291;23;20019;-85
2024/01/10 17:16:08;;;;;;;60.08;20.30;;;;;;;;;;10340224;23;20016;-83
2024/01/10 17:20:14;;;;;;;49.25;18.58;;;;;;;;;;10340787;23;20092;-84
2024/01/10 17:24:18;;;;;;;41.95;16.00;;;;;;;;;;10339505;23;20062;-83
2024/01/10 17:40:27;;;;;;;259.45;77.80;;;;;;;;;;10339750;23;20511;-85
2024/01/10 17:44:37;;;;;;;57.15;23.60;;;;;;;;;;10312882;23;20099;-85
2024/01/10 17:48:40;;;;;;;41.85;16.00;;;;;;;;;;10339495;23;20457;-82
2024/01/10 17:52:43;;;;;;;46.38;16.92;;;;;;;;;;10312929;23;20036;-84
2024/01/10 17:56:46;;;;;;;46.65;16.33;;;;;;;;;;10339027;23;20020;-81
2024/01/10 18:00:53;;;;;;;31.95;14.52;;;;;;;;;;10339646;23;20055;-84
2024/01/10 18:04:56;;;;;;;38.75;14.68;;;;;;;;;;10356220;23;20016;-85
2024/01/10 18:08:59;;;;;;;47.58;18.60;;;;;;;;;;10339421;23;20669;-87
2024/01/10 18:13:04;;;;;;;42.03;16.67;;;;;;;;;;10312708;23;20020;-83
2024/01/10 18:17:12;;;;;;;41.63;17.83;;;;;;;;;;10312521;23;20382;-82
2024/01/10 18:21:16;;;;;;;59.45;26.45;;;;;;;;;;10356024;23;20024;-85
2024/01/10 18:25:20;;;;;;;62.78;24.65;;;;;;;;;;10312977;23;20023;-82
2024/01/10 18:29:23;;;;;;;97.95;25.13;;;;;;;;;;10264037;23;20013;-84
2024/01/10 18:33:28;;;;;;;69.93;22.98;;;;;;;;;;10338828;23;20031;-84
2024/01/10 18:37:33;;;;;;;44.75;18.10;;;;;;;;;;10356030;23;20524;-86
2024/01/10 18:41:38;;;;;;;60.90;21.63;;;;;;;;;;10311190;23;20020;-87
2024/01/10 18:45:41;;;;;;;78.03;25.98;;;;;;;;;;10338062;23;20020;-85
2024/01/10 18:49:46;;;;;;;67.55;24.60;;;;;;;;;;10338490;23;20070;-85
2024/01/10 18:53:49;;;;;;;73.93;26.75;;;;;;;;;;10339033;23;20468;-84
2024/01/10 18:57:54;;;;;;;360.80;78.10;;;;;;;;;;10338460;23;20027;-84
2024/01/10 19:02:00;;;;;;;309.90;70.40;;;;;;;;;;10338300;23;20016;-87
2024/01/10 19:06:07;;;;;;;162.65;47.67;;;;;;;;;;10354582;23;20016;-84
2024/01/10 19:10:11;;;;;;;210.00;54.38;;;;;;;;;;10354519;23;20024;-82
2024/01/10 19:33:35;;;;;;;103.07;34.22;;;;;;;;;;10335266;23;19912;-85
2024/01/10 19:37:38;;;;;;;111.05;29.70;;;;;;;;;;10337873;23;20070;-85
2024/01/10 19:41:41;;;;;;;134.10;32.50;;;;;;;;;;10338004;23;20360;-87
2024/01/10 19:45:47;;;;;;;130.82;33.30;;;;;;;;;;10337705;23;20449;-84
2024/01/10 19:49:55;;;;;;;167.40;43.70;;;;;;;;;;10354322;23;20023;-86
2024/01/10 19:53:59;;;;;;;459.88;113.00;;;;;;;;;;10355201;23;20415;-86
2024/01/10 19:58:02;;;;;;;331.48;108.43;;;;;;;;;;10337438;23;20016;-86
2024/01/10 20:02:10;;;;;;;121.75;48.88;;;;;;;;;;10337438;23;20016;-84
2024/01/10 20:06:22;;;;;;;386.25;108.68;;;;;;;;;;10267874;23;20067;-85
2024/01/10 20:10:26;;;;;;;264.80;66.93;;;;;;;;;;10354151;23;20121;-86
2024/01/10 20:14:29;;;;;;;189.38;50.03;;;;;;;;;;10337383;23;20027;-82
2024/01/10 20:50:09;;;;;;;66.63;23.63;;;;;;;;;;10148288;23;20063;-85
2024/01/10 20:54:12;;;;;;;97.25;29.75;;;;;;;;;;10353657;23;20028;-85
2024/01/10 20:58:16;;;;;;;60.08;24.00;;;;;;;;;;10310504;23;20452;-85
2024/01/10 21:02:20;;;;;;;64.50;24.40;;;;;;;;;;10310112;23;20031;-83
2024/01/10 21:06:27;;;;;;;103.88;29.70;;;;;;;;;;10337434;23;20020;-84
2024/01/10 21:10:35;;;;;;;136.57;34.80;;;;;;;;;;10309907;23;20329;-84
2024/01/10 21:14:40;;;;;;;69.10;24.05;;;;;;;;;;10310172;23;20041;-84
2024/01/10 21:18:44;;;;;;;165.48;39.53;;;;;;;;;;10310477;23;20020;-85
2024/01/10 21:22:52;;;;;;;89.97;34.10;;;;;;;;;;10309804;23;20016;-86
2024/01/10 22:55:28;;;;;;;112.00;39.17;;;;;;;;;;10257929;23;20029;-85
2024/01/10 22:59:31;;;;;;;139.60;45.17;;;;;;;;;;10338431;23;20444;-86
2024/01/10 23:03:36;;;;;;;132.80;47.05;;;;;;;;;;10311459;23;20098;-84
2024/01/10 23:07:39;;;;;;;106.10;39.60;;;;;;;;;;10329188;23;20087;-87
2024/01/10 23:12:10;;;;;;;126.38;43.05;;;;;;;;;;10294167;23;20479;-86
2024/01/10 23:16:13;;;;;;;141.93;49.15;;;;;;;;;;10338229;23;20151;-86
2024/01/10 23:20:19;;;;;;;137.30;43.17;;;;;;;;;;10338090;23;20019;-87
2024/01/10 23:24:22;;;;;;;199.95;57.50;;;;;;;;;;10354410;23;20039;-86
2024/01/10 23:28:29;;;;;;;137.93;43.40;;;;;;;;;;10311313;23;20460;-82
2024/01/10 23:36:43;;;;;;;134.45;43.25;;;;;;;;;;10332978;23;20043;-85
2024/01/10 23:40:47;;;;;;;129.85;43.22;;;;;;;;;;10311229;23;20075;-83
2024/01/10 23:44:51;;;;;;;123.45;39.42;;;;;;;;;;10337540;23;20024;-84
2024/01/10 23:48:54;;;;;;;122.10;42.53;;;;;;;;;;10337505;23;20091;-84
2024/01/10 23:52:58;;;;;;;253.63;79.25;;;;;;;;;;10337135;23;20016;-87
2024/01/10 23:57:02;;;;;;;204.00;66.47;;;;;;;;;;10310578;23;20020;-86
